Time;durP1;ratioP1;P1;durP2;ratioP2;P2;SDS_P1;SDS_P2;PMS_P1;PMS_P2;Temp;Humidity;BMP_temperature;BMP_pressure;BME280_temperature;BME280_humidity;BME280_pressure;Samples;Min_cycle;Max_cycle;Signal;HPM_P1;HPM_P2
2022/09/29 00:01:02;;;;;;;7.95;6.18;;;;;;;7.47;83.87;96676.03;4972560;28;20490;-88
2022/09/29 00:03:28;;;;;;;8.68;6.38;;;;;;;7.37;83.96;96665.28;4972583;28;20053;-88
2022/09/29 00:05:55;;;;;;;6.10;5.40;;;;;;;7.39;84.40;96664.06;4955252;28;20055;-88
2022/09/29 00:08:26;;;;;;;8.02;6.50;;;;;;;7.47;84.19;96674.22;4971844;28;20050;-87
2022/09/29 00:10:53;;;;;;;10.45;6.35;;;;;;;7.45;84.60;96665.03;4971445;28;20045;-87
2022/09/29 00:13:20;;;;;;;6.88;5.50;;;;;;;7.52;85.23;96670.97;4969802;28;20057;-88
2022/09/29 00:16:01;;;;;;;7.35;5.60;;;;;;;7.51;85.26;96666.78;4972071;28;20043;-88
2022/09/29 00:18:31;;;;;;;7.90;5.53;;;;;;;7.55;85.45;96674.97;4972268;28;20054;-88
2022/09/29 00:21:10;;;;;;;9.77;5.85;;;;;;;7.58;85.00;96662.28;4972616;28;20050;-90
2022/09/29 00:23:37;;;;;;;7.30;5.35;;;;;;;7.64;84.87;96661.44;4972448;28;20043;-89
2022/09/29 00:26:14;;;;;;;9.50;5.57;;;;;;;7.77;84.78;96663.91;4972185;28;20043;-88
2022/09/29 00:28:48;;;;;;;7.90;5.85;;;;;;;7.84;84.69;96665.66;4969611;28;20062;-86
2022/09/29 00:31:15;;;;;;;7.25;5.38;;;;;;;7.89;83.99;96663.97;4955485;28;20049;-88
2022/09/29 00:33:41;;;;;;;8.18;5.80;;;;;;;7.87;84.10;96662.63;4970907;28;20046;-89
2022/09/29 00:36:16;;;;;;;7.97;5.32;;;;;;;7.91;84.70;96666.38;4960691;28;20050;-86
2022/09/29 00:38:48;;;;;;;7.97;5.43;;;;;;;7.86;84.35;96667.03;4972211;28;20039;-88
2022/09/29 00:41:23;;;;;;;7.22;5.47;;;;;;;7.97;84.33;96671.50;4971052;28;20118;-87
2022/09/29 00:44:03;;;;;;;7.70;5.47;;;;;;;8.02;84.27;96673.47;4966874;28;20052;-88
2022/09/29 00:46:51;;;;;;;7.38;5.30;;;;;;;8.05;84.59;96679.06;4965979;28;20043;-87
2022/09/29 00:49:45;;;;;;;6.57;5.25;;;;;;;8.14;83.60;96671.72;4964463;28;20044;-88
2022/09/29 00:52:22;;;;;;;7.93;5.30;;;;;;;8.15;83.62;96668.09;4969487;28;20046;-87
2022/09/29 00:55:15;;;;;;;7.50;5.57;;;;;;;8.15;83.81;96662.88;4971569;28;20046;-88
2022/09/29 00:58:04;;;;;;;7.43;5.40;;;;;;;8.19;83.99;96648.38;4962938;28;20051;-87
2022/09/29 01:00:31;;;;;;;10.02;5.55;;;;;;;8.22;82.72;96663.63;4947503;29;20391;-88
2022/09/29 01:03:07;;;;;;;7.05;5.20;;;;;;;8.14;82.67;96660.50;4965109;28;20078;-88
2022/09/29 01:05:43;;;;;;;6.65;5.30;;;;;;;8.14;82.48;96660.50;4972828;28;20072;-88
2022/09/29 01:08:57;;;;;;;7.57;5.90;;;;;;;8.18;82.53;96662.47;4965845;28;20065;-88
2022/09/29 01:11:24;;;;;;;8.48;5.20;;;;;;;8.21;82.38;96656.78;4964518;28;20043;-87
2022/09/29 01:13:54;;;;;;;8.55;5.10;;;;;;;8.09;82.60;96663.75;4971423;28;20042;-88
2022/09/29 01:16:21;;;;;;;6.90;5.45;;;;;;;8.15;82.91;96665.50;4971966;28;20522;-88
2022/09/29 01:18:47;;;;;;;6.25;5.18;;;;;;;8.13;82.65;96653.69;4972041;28;20435;-88
2022/09/29 01:21:35;;;;;;;7.40;5.50;;;;;;;8.21;82.77;96661.22;4972604;28;20043;-88
2022/09/29 01:24:26;;;;;;;6.80;5.32;;;;;;;8.21;82.12;96661.22;4971877;28;20077;-88
2022/09/29 01:27:19;;;;;;;;;;;;;;;8.06;83.00;96669.44;4967564;28;20043;-88
2022/09/29 01:30:04;;;;;;;6.72;5.30;;;;;;;8.10;82.53;96673.22;4971883;28;19928;-88
2022/09/29 01:32:59;;;;;;;6.30;4.63;;;;;;;8.11;82.83;96664.34;4971517;28;20038;-87
2022/09/29 01:35:41;;;;;;;9.07;5.28;;;;;;;8.18;82.97;96666.88;4951038;29;20047;-88
2022/09/29 01:38:46;;;;;;;7.25;5.22;;;;;;;8.09;82.58;96668.97;4959529;28;20487;-87
2022/09/29 01:41:45;;;;;;;6.28;5.18;;;;;;;8.12;82.84;96672.97;4951929;29;20043;-87
2022/09/29 01:44:25;;;;;;;9.43;5.78;;;;;;;8.09;82.42;96676.81;4955864;28;20058;-88
2022/09/29 01:47:01;;;;;;;7.53;5.20;;;;;;;8.11;82.62;96674.81;4965418;28;20053;-86
2022/09/29 01:49:35;;;;;;;6.25;5.65;;;;;;;8.03;83.20;96675.06;4971753;28;20043;-86
2022/09/29 01:52:16;;;;;;;8.18;5.50;;;;;;;8.01;82.93;96667.47;4968173;28;20043;-86
2022/09/29 01:54:55;;;;;;;7.40;5.38;;;;;;;8.11;83.20;96669.56;4960852;28;20105;-87
2022/09/29 01:57:54;;;;;;;9.57;5.40;;;;;;;7.99;83.05;96668.72;4955566;28;20134;-87
2022/09/29 02:00:23;;;;;;;7.38;5.15;;;;;;;8.06;83.30;96669.44;4963012;28;20125;-87
2022/09/29 02:02:59;;;;;;;6.18;4.95;;;;;;;8.00;83.23;96668.47;4971671;28;20117;-86
2022/09/29 02:05:43;;;;;;;7.60;5.03;;;;;;;7.97;83.41;96663.69;4972267;28;20051;-86
2022/09/29 02:08:18;;;;;;;7.35;5.43;;;;;;;7.88;83.42;96666.81;4971843;28;20065;-86
2022/09/29 02:10:58;;;;;;;7.18;5.18;;;;;;;7.88;83.94;96670.22;4967573;28;20134;-87
2022/09/29 02:13:28;;;;;;;8.82;5.38;;;;;;;7.87;84.23;96670.44;4965081;28;20134;-87
2022/09/29 02:15:57;;;;;;;20.02;12.13;;;;;;;7.99;83.87;96673.94;4971769;28;20378;-86
2022/09/29 02:18:44;;;;;;;8.00;6.03;;;;;;;7.86;83.47;96671.47;4971806;28;20049;-87
2022/09/29 02:21:11;;;;;;;9.13;6.30;;;;;;;7.89;84.17;96674.44;4956036;28;20039;-87
2022/09/29 02:23:38;;;;;;;7.72;5.95;;;;;;;7.95;84.15;96677.97;4972187;28;20043;-86
2022/09/29 02:26:05;;;;;;;7.95;6.57;;;;;;;8.00;83.42;96686.75;4971945;28;20053;-86
2022/09/29 02:28:31;;;;;;;12.13;7.40;;;;;;;8.02;83.48;96679.50;4972116;28;20416;-85
2022/09/29 02:30:59;;;;;;;10.50;9.45;;;;;;;7.96;83.43;96680.38;4970742;28;20046;-86
2022/09/29 02:33:25;;;;;;;9.98;7.75;;;;;;;7.90;83.97;96672.59;4971424;28;20051;-86
2022/09/29 02:36:22;;;;;;;8.73;6.40;;;;;;;7.93;83.91;96685.25;4970974;28;20051;-87
2022/09/29 02:39:13;;;;;;;8.10;6.63;;;;;;;7.91;83.99;96682.03;4971056;28;20383;-87
2022/09/29 02:42:11;;;;;;;8.77;7.72;;;;;;;7.92;84.05;96678.44;4959980;28;20043;-86
2022/09/29 02:44:52;;;;;;;11.70;10.55;;;;;;;7.95;84.27;96684.00;4967701;28;20499;-87
2022/09/29 02:47:56;;;;;;;9.00;7.80;;;;;;;7.98;83.57;96680.16;4954271;28;20047;-86
2022/09/29 02:50:41;;;;;;;7.65;6.13;;;;;;;7.97;83.73;96681.16;4963396;28;20095;-87
2022/09/29 02:53:36;;;;;;;8.85;5.60;;;;;;;8.00;84.78;96685.97;4969679;28;20046;-86
2022/09/29 02:56:44;;;;;;;6.45;5.40;;;;;;;7.99;84.00;96674.72;4959992;28;20602;-87
2022/09/29 02:59:21;;;;;;;6.80;5.00;;;;;;;7.91;84.17;96661.94;4970310;28;20042;-88
2022/09/29 03:01:55;;;;;;;6.65;5.03;;;;;;;7.97;84.34;96670.72;4972794;28;20678;-86
2022/09/29 03:04:26;;;;;;;6.50;5.10;;;;;;;7.96;84.27;96671.75;4966616;28;20053;-87
2022/09/29 03:06:53;;;;;;;10.23;5.70;;;;;;;7.90;84.97;96652.53;4969613;28;20066;-87
2022/09/29 03:09:20;;;;;;;6.15;5.30;;;;;;;7.99;84.49;96677.34;4974902;28;20042;-87
2022/09/29 03:11:46;;;;;;;9.07;5.90;;;;;;;7.86;84.37;96671.47;4974222;28;20043;-87
2022/09/29 03:14:13;;;;;;;6.20;5.05;;;;;;;7.96;84.78;96669.94;4973437;28;20133;-87
2022/09/29 03:16:40;;;;;;;8.73;5.38;;;;;;;7.87;84.77;96665.22;4967722;28;20054;-87
2022/09/29 03:19:07;;;;;;;8.52;5.53;;;;;;;7.92;84.72;96668.78;4973487;28;20623;-87
2022/09/29 03:21:34;;;;;;;9.05;6.05;;;;;;;7.78;84.74;96667.31;4973949;28;20051;-87
2022/09/29 03:24:01;;;;;;;8.25;6.25;;;;;;;7.82;85.36;96657.25;4974457;28;20495;-86
2022/09/29 03:26:29;;;;;;;8.90;5.43;;;;;;;7.84;84.75;96658.59;4956822;28;20538;-87
2022/09/29 03:28:55;;;;;;;6.18;5.05;;;;;;;7.77;84.24;96660.50;4975334;28;20133;-86
2022/09/29 03:31:22;;;;;;;8.23;5.32;;;;;;;7.75;84.32;96660.72;4969318;28;20042;-87
2022/09/29 03:33:49;;;;;;;9.05;5.43;;;;;;;7.81;84.60;96674.72;4973171;28;20074;-86
2022/09/29 03:36:15;;;;;;;7.47;5.20;;;;;;;7.83;84.79;96670.06;4980116;28;20050;-88
2022/09/29 03:38:44;;;;;;;8.52;5.53;;;;;;;7.79;84.38;96656.63;4975740;28;20042;-86
2022/09/29 03:41:11;;;;;;;6.60;6.00;;;;;;;7.73;83.61;96660.13;4973658;28;20039;-86
2022/09/29 03:43:37;;;;;;;7.03;5.50;;;;;;;7.86;83.62;96669.66;4961026;28;20062;-86
2022/09/29 03:46:04;;;;;;;6.40;4.97;;;;;;;7.85;84.00;96678.47;4973238;28;20129;-86
2022/09/29 03:48:33;;;;;;;6.40;5.18;;;;;;;8.00;84.14;96689.38;4955565;28;20233;-86
2022/09/29 03:51:01;;;;;;;8.10;4.95;;;;;;;8.01;83.97;96679.72;4962413;28;20506;-87
2022/09/29 03:53:27;;;;;;;6.93;5.63;;;;;;;8.06;83.30;96687.72;4970512;28;20078;-87
2022/09/29 03:55:54;;;;;;;7.10;5.93;;;;;;;8.07;83.32;96691.91;4972490;28;20418;-86
2022/09/29 03:58:21;;;;;;;7.35;5.45;;;;;;;8.04;82.90;96694.97;4968363;28;20038;-87
2022/09/29 04:00:48;;;;;;;8.23;6.68;;;;;;;8.01;82.89;96692.78;4972040;28;20039;-87
2022/09/29 04:03:15;;;;;;;8.40;5.63;;;;;;;8.03;83.13;96701.19;4972568;28;20043;-86
2022/09/29 04:05:45;;;;;;;7.72;6.22;;;;;;;8.09;82.75;96699.50;4955318;28;20062;-86
2022/09/29 04:08:13;;;;;;;12.13;6.75;;;;;;;8.04;82.73;96693.16;4972257;28;20054;-86
2022/09/29 04:10:41;;;;;;;6.07;5.45;;;;;;;8.03;83.19;96695.97;4968947;28;20061;-87
2022/09/29 04:13:08;;;;;;;10.07;5.50;;;;;;;8.04;83.52;96694.97;4973158;28;20399;-88
2022/09/29 04:15:35;;;;;;;11.02;6.20;;;;;;;8.06;83.64;96687.72;4972219;28;20150;-87
2022/09/29 04:18:02;;;;;;;8.77;5.45;;;;;;;8.04;83.25;96682.72;4973531;28;20125;-86
2022/09/29 04:20:28;;;;;;;9.00;5.70;;;;;;;7.93;83.31;96682.63;4972793;28;20042;-87
2022/09/29 04:22:55;;;;;;;9.23;5.72;;;;;;;7.91;83.23;96680.22;4974180;28;20046;-87
2022/09/29 04:25:21;;;;;;;7.57;5.80;;;;;;;7.85;83.70;96673.25;4974437;28;20378;-86
2022/09/29 04:27:48;;;;;;;10.15;6.22;;;;;;;7.92;84.73;96681.84;4972159;28;20483;-86
2022/09/29 04:30:15;;;;;;;6.40;5.07;;;;;;;8.05;84.58;96686.13;4972049;28;20050;-86
2022/09/29 04:32:41;;;;;;;7.45;5.55;;;;;;;8.03;84.22;96685.50;4953484;28;20142;-87
2022/09/29 04:35:08;;;;;;;8.05;5.45;;;;;;;7.98;84.09;96680.16;4972143;28;20118;-86
2022/09/29 04:37:35;;;;;;;8.38;5.53;;;;;;;7.85;84.33;96681.09;4974007;28;20039;-86
2022/09/29 04:40:04;;;;;;;9.55;5.07;;;;;;;7.91;84.87;96695.09;4972238;28;20043;-86
2022/09/29 04:42:30;;;;;;;6.95;5.80;;;;;;;7.87;84.63;96688.72;4971297;28;20045;-86
2022/09/29 04:44:57;;;;;;;9.38;5.55;;;;;;;7.89;84.04;96684.06;4971807;28;20050;-87
2022/09/29 04:47:24;;;;;;;10.73;6.07;;;;;;;7.88;84.37;96687.69;4971846;28;20062;-88
2022/09/29 04:49:50;;;;;;;7.90;5.38;;;;;;;7.81;84.42;96681.75;4963396;28;20059;-86
2022/09/29 04:52:17;;;;;;;7.90;5.75;;;;;;;7.93;83.98;96690.47;4968889;28;20049;-87
2022/09/29 04:54:45;;;;;;;6.72;5.25;;;;;;;7.88;83.98;96683.28;4971011;28;20085;-86
2022/09/29 04:57:11;;;;;;;7.15;5.45;;;;;;;8.00;84.29;96689.38;4971720;28;20046;-86
2022/09/29 04:59:38;;;;;;;7.25;5.13;;;;;;;8.01;83.71;96684.94;4974895;28;20459;-87
2022/09/29 05:02:04;;;;;;;10.90;5.63;;;;;;;7.95;82.81;96689.22;4972029;28;20034;-87
2022/09/29 05:04:31;;;;;;;8.93;6.00;;;;;;;7.86;82.87;96687.13;4969840;28;20058;-87
2022/09/29 05:06:58;;;;;;;8.60;5.55;;;;;;;7.83;82.91;96685.72;4971340;28;20054;-86
2022/09/29 05:09:24;;;;;;;7.90;5.53;;;;;;;7.91;83.10;96679.41;4953968;28;20043;-87
2022/09/29 05:11:56;;;;;;;6.80;5.20;;;;;;;7.88;83.12;96683.28;4971648;28;20038;-87
2022/09/29 05:14:23;;;;;;;8.00;5.40;;;;;;;7.87;83.41;96680.88;4949990;28;20067;-86
2022/09/29 05:16:49;;;;;;;8.65;5.40;;;;;;;7.87;83.10;96686.91;4971200;28;20041;-87
2022/09/29 05:19:16;;;;;;;8.65;5.82;;;;;;;7.89;83.25;96684.06;4970800;28;20069;-86
2022/09/29 05:21:43;;;;;;;6.70;5.47;;;;;;;7.77;83.10;96670.94;4971062;28;20070;-87
2022/09/29 05:24:09;;;;;;;6.53;5.40;;;;;;;7.93;83.59;96690.47;4966283;28;20126;-86
2022/09/29 05:26:36;;;;;;;9.52;5.90;;;;;;;7.88;83.35;96687.69;4970952;28;20042;-86
2022/09/29 05:29:02;;;;;;;8.07;5.30;;;;;;;7.84;83.44;96691.75;4973143;28;20518;-87
2022/09/29 05:31:29;;;;;;;9.57;5.72;;;;;;;7.76;83.86;96691.03;4970074;28;20125;-87
2022/09/29 05:33:57;;;;;;;7.57;5.93;;;;;;;7.67;84.36;96694.91;4970649;28;20046;-87
2022/09/29 05:36:23;;;;;;;7.60;5.75;;;;;;;7.68;84.47;96688.69;4971212;28;20047;-86
2022/09/29 05:38:50;;;;;;;7.65;5.55;;;;;;;7.55;84.10;96685.38;4971216;28;20051;-87
2022/09/29 05:41:21;;;;;;;9.02;5.80;;;;;;;7.58;84.20;96688.38;4970808;28;20637;-87
2022/09/29 05:43:52;;;;;;;7.93;5.65;;;;;;;7.60;83.51;96685.56;4968258;28;20092;-86
2022/09/29 05:46:21;;;;;;;8.13;5.22;;;;;;;7.54;83.65;96674.16;4971084;28;20042;-87
2022/09/29 05:48:52;;;;;;;8.10;6.15;;;;;;;7.66;83.75;96695.94;4970913;28;20067;-87
2022/09/29 05:51:22;;;;;;;8.70;6.20;;;;;;;7.64;83.80;96686.72;4954067;28;20493;-87
2022/09/29 05:53:50;;;;;;;10.48;5.93;;;;;;;7.59;83.74;96689.97;4967611;28;20038;-87
2022/09/29 05:56:24;;;;;;;7.88;5.68;;;;;;;7.61;84.83;96682.72;4970851;28;20049;-87
2022/09/29 05:58:52;;;;;;;8.95;5.68;;;;;;;7.71;84.08;96693.47;4927256;28;20050;-88
2022/09/29 06:01:23;;;;;;;6.63;5.20;;;;;;;7.67;84.02;96687.06;4969721;28;20050;-87
2022/09/29 06:03:53;;;;;;;7.30;5.65;;;;;;;7.82;84.52;96694.59;4970914;28;20043;-87
2022/09/29 06:06:24;;;;;;;9.57;6.15;;;;;;;7.83;84.38;96693.56;4971145;28;20043;-88
2022/09/29 06:08:52;;;;;;;7.53;5.85;;;;;;;7.72;84.27;96681.22;4951889;29;20047;-88
2022/09/29 06:11:26;;;;;;;6.82;5.63;;;;;;;7.90;84.68;96685.66;4969374;28;20046;-87
2022/09/29 06:13:54;;;;;;;7.95;5.95;;;;;;;7.91;84.45;96700.31;4971192;28;20149;-87
2022/09/29 06:16:25;;;;;;;9.07;6.43;;;;;;;7.86;84.67;96692.34;4953804;28;20125;-87
2022/09/29 06:18:52;;;;;;;8.57;6.22;;;;;;;7.93;84.77;96706.13;4963766;28;20537;-88
2022/09/29 06:21:22;;;;;;;8.00;6.05;;;;;;;7.97;84.31;96708.06;4970102;28;20050;-87
2022/09/29 06:23:50;;;;;;;11.55;5.97;;;;;;;7.92;84.26;96705.34;4973245;28;20130;-88
2022/09/29 06:26:19;;;;;;;9.00;6.15;;;;;;;7.91;83.96;96702.91;4972485;28;20046;-88
2022/09/29 06:28:50;;;;;;;9.60;5.95;;;;;;;7.88;84.35;96698.16;4968329;28;20081;-87
2022/09/29 06:31:20;;;;;;;8.23;5.78;;;;;;;7.93;84.03;96695.69;4973306;28;20046;-88
2022/09/29 06:33:47;;;;;;;10.70;7.13;;;;;;;7.84;84.43;96691.75;4955028;28;20049;-88
2022/09/29 06:39:16;;;;;;;10.38;6.00;;;;;;;7.94;84.09;96699.88;4969497;28;20585;-88
2022/09/29 06:41:47;;;;;;;9.63;6.15;;;;;;;8.01;84.20;96711.84;4974805;28;20125;-88
2022/09/29 06:44:14;;;;;;;;;;;;;;;8.12;83.83;96705.13;4972831;28;20050;-88
2022/09/29 06:46:41;;;;;;;10.75;5.78;;;;;;;8.02;83.23;96689.16;4974531;28;19964;-89
2022/09/29 06:49:11;;;;;;;8.75;5.97;;;;;;;8.19;83.23;96718.91;4972789;28;20042;-89
2022/09/29 06:51:38;;;;;;;7.33;5.93;;;;;;;8.33;82.77;96717.72;4971988;28;20047;-89
2022/09/29 06:54:17;;;;;;;8.40;6.05;;;;;;;8.52;82.16;96715.94;4974060;28;20356;-88
2022/09/29 06:56:50;;;;;;;;;;;;;;;8.80;82.36;96725.81;4975983;28;20471;-89
2022/09/29 06:59:17;;;;;;;8.05;5.13;;;;;;;8.69;80.89;96697.81;4971149;28;20488;-88
2022/09/29 07:01:48;;;;;;;8.23;5.85;;;;;;;8.82;80.32;96721.19;4973947;28;20513;-88
2022/09/29 07:04:15;;;;;;;9.20;5.95;;;;;;;8.92;80.03;96727.69;4972537;28;20546;-88
2022/09/29 07:06:44;;;;;;;8.18;5.40;;;;;;;8.98;79.80;96738.06;4958293;28;20479;-88
2022/09/29 07:09:14;;;;;;;7.40;5.88;;;;;;;9.06;80.31;96737.75;4973023;28;20513;-88
2022/09/29 07:11:45;;;;;;;7.07;5.82;;;;;;;9.44;80.24;96726.13;4975144;28;20051;-88
2022/09/29 07:14:16;;;;;;;6.70;5.55;;;;;;;9.63;78.96;96724.22;4969054;28;20046;-88
2022/09/29 07:16:43;;;;;;;7.90;5.47;;;;;;;9.81;77.23;96729.34;4974065;28;20074;-88
2022/09/29 07:19:10;;;;;;;8.70;5.65;;;;;;;9.74;78.06;96720.00;4973214;28;20130;-88
2022/09/29 07:21:36;;;;;;;9.57;5.43;;;;;;;9.65;77.72;96735.25;4973164;28;20043;-90
2022/09/29 07:24:03;;;;;;;9.30;6.00;;;;;;;9.74;79.71;96733.91;4968963;28;20062;-88
2022/09/29 07:26:30;;;;;;;6.57;5.40;;;;;;;9.82;77.03;96740.59;4964974;28;20067;-89
2022/09/29 07:28:56;;;;;;;6.63;5.50;;;;;;;10.02;76.33;96751.56;4971408;28;20142;-89
2022/09/29 07:31:23;;;;;;;7.50;5.53;;;;;;;10.00;76.09;96758.03;4970904;28;20047;-88
2022/09/29 07:33:51;;;;;;;8.98;5.57;;;;;;;10.25;76.17;96744.72;4972306;28;20046;-89
2022/09/29 07:36:20;;;;;;;7.53;5.25;;;;;;;10.47;75.49;96747.53;4961014;28;20051;-90
2022/09/29 07:38:49;;;;;;;7.43;5.63;;;;;;;10.45;74.14;96745.94;4956550;28;20834;-89
2022/09/29 07:41:20;;;;;;;6.60;5.53;;;;;;;10.63;75.05;96752.06;4973249;28;20073;-90
2022/09/29 07:43:47;;;;;;;11.98;5.60;;;;;;;10.77;74.06;96757.81;4972221;28;20042;-89
2022/09/29 07:46:14;;;;;;;8.20;6.28;;;;;;;10.70;75.40;96747.47;4972793;28;20612;-89
2022/09/29 07:48:42;;;;;;;8.88;5.43;;;;;;;10.79;73.64;96755.75;4972317;28;20105;-89
2022/09/29 07:51:14;;;;;;;7.95;5.13;;;;;;;10.61;73.07;96764.59;4972370;28;20394;-89
2022/09/29 07:53:41;;;;;;;7.97;5.93;;;;;;;10.35;73.78;96766.69;4969878;28;20042;-89
2022/09/29 07:56:18;;;;;;;6.07;5.20;;;;;;;10.32;74.93;96763.75;4970939;28;20418;-89
2022/09/29 07:58:48;;;;;;;7.35;5.82;;;;;;;10.41;73.37;96765.78;4961383;28;20750;-89
2022/09/29 08:01:18;;;;;;;6.38;5.70;;;;;;;10.43;73.38;96750.63;4943192;29;20047;-89
2022/09/29 08:03:53;;;;;;;8.07;5.47;;;;;;;10.56;74.20;96767.13;4953497;29;20487;-88
2022/09/29 08:06:23;;;;;;;8.02;5.70;;;;;;;10.45;72.97;96755.63;4950065;28;20058;-89
2022/09/29 08:08:50;;;;;;;6.15;5.05;;;;;;;10.76;73.40;96754.41;4942325;28;20051;-90
2022/09/29 08:11:30;;;;;;;7.05;5.60;;;;;;;10.67;72.90;96753.97;4969355;28;20050;-89
2022/09/29 08:13:59;;;;;;;7.68;5.45;;;;;;;10.63;74.36;96759.94;4972412;28;20049;-89
2022/09/29 08:16:27;;;;;;;9.68;5.70;;;;;;;10.94;76.27;96762.09;4936812;29;20134;-89
2022/09/29 08:18:53;;;;;;;8.52;5.95;;;;;;;11.09;71.33;96760.78;4952172;28;20470;-89
2022/09/29 08:21:20;;;;;;;8.05;5.72;;;;;;;11.34;71.01;96758.63;4970522;28;20054;-89
2022/09/29 08:23:47;;;;;;;8.27;6.18;;;;;;;11.82;71.98;96762.56;4972287;28;20042;-90
2022/09/29 08:26:17;;;;;;;7.97;5.80;;;;;;;11.69;70.47;96765.47;4958086;28;20050;-92
2022/09/29 08:28:49;;;;;;;10.82;5.50;;;;;;;11.83;69.94;96764.16;4970534;28;20549;-90
2022/09/29 08:31:32;;;;;;;6.85;5.90;;;;;;;11.94;68.84;96771.16;4970588;28;20074;-91
2022/09/29 08:33:59;;;;;;;9.15;5.93;;;;;;;12.12;71.03;96769.31;4969384;28;20551;-90
2022/09/29 08:36:26;;;;;;;6.25;5.50;;;;;;;12.42;69.38;96751.31;4970674;28;20137;-90
2022/09/29 08:38:56;;;;;;;8.13;5.22;;;;;;;12.71;68.34;96761.66;4957741;28;20130;-90
2022/09/29 08:41:53;;;;;;;8.68;5.00;;;;;;;12.47;66.89;96763.72;4972501;28;20129;-90
2022/09/29 08:44:39;;;;;;;7.65;5.40;;;;;;;12.02;70.59;96773.38;4969705;28;20452;-91
2022/09/29 08:47:14;;;;;;;8.80;6.10;;;;;;;11.96;68.89;96769.09;4954684;28;20897;-90
2022/09/29 08:49:51;;;;;;;8.20;5.40;;;;;;;12.00;69.73;96772.03;4970711;28;20533;-91
2022/09/29 08:52:25;;;;;;;10.63;6.25;;;;;;;11.78;68.79;96759.59;4967455;28;20075;-88
2022/09/29 08:55:12;;;;;;;9.67;6.43;;;;;;;11.74;70.80;96762.94;4969169;28;20121;-91
2022/09/29 08:57:52;;;;;;;9.25;6.60;;;;;;;11.75;70.17;96769.75;4970552;28;20046;-92
2022/09/29 09:00:22;;;;;;;8.60;6.07;;;;;;;11.90;70.94;96759.53;4970100;28;20133;-92
2022/09/29 09:03:15;;;;;;;8.50;6.57;;;;;;;11.94;69.14;96767.75;4971014;28;20062;-91
2022/09/29 09:06:01;;;;;;;9.50;6.13;;;;;;;12.17;69.85;96766.75;4969907;28;20043;-91
2022/09/29 09:08:33;;;;;;;8.20;6.10;;;;;;;12.03;69.16;96764.44;4971930;28;20061;-92
2022/09/29 09:11:05;;;;;;;8.43;5.88;;;;;;;12.09;69.18;96764.53;4971611;28;20510;-92
2022/09/29 09:13:57;;;;;;;9.15;6.00;;;;;;;12.15;69.40;96771.44;4971240;28;20137;-91
2022/09/29 09:16:47;;;;;;;8.60;6.07;;;;;;;12.28;69.21;96758.75;4954000;28;20050;-92
2022/09/29 09:19:42;;;;;;;7.07;6.30;;;;;;;12.72;71.10;96755.38;4947561;28;20072;-92
2022/09/29 09:22:12;;;;;;;7.65;5.72;;;;;;;13.18;67.77;96766.38;4947617;28;20043;-91
2022/09/29 09:24:45;;;;;;;8.60;5.90;;;;;;;13.15;67.15;96764.25;4953125;28;20068;-91
2022/09/29 09:27:22;;;;;;;8.73;5.88;;;;;;;13.16;65.33;96763.19;4971044;28;20125;-92
2022/09/29 09:30:02;;;;;;;9.43;5.72;;;;;;;13.48;66.44;96774.59;4971034;28;20043;-93
2022/09/29 09:32:39;;;;;;;10.95;6.10;;;;;;;13.42;67.16;96767.69;4954826;28;20075;-92
2022/09/29 09:35:28;;;;;;;9.55;5.75;;;;;;;13.43;67.00;96766.63;4971036;28;20609;-91
2022/09/29 09:38:03;;;;;;;8.88;6.20;;;;;;;13.72;65.97;96777.69;4971178;28;20410;-89
2022/09/29 09:40:44;;;;;;;5.90;5.10;;;;;;;13.77;64.62;96769.84;4970851;28;20384;-91
2022/09/29 09:43:18;;;;;;;9.80;6.10;;;;;;;13.83;65.85;96773.31;4961354;28;20049;-91
2022/09/29 09:46:12;;;;;;;8.50;5.80;;;;;;;13.85;66.98;96763.28;4953504;28;20057;-89
2022/09/29 09:48:55;;;;;;;7.63;6.05;;;;;;;13.76;65.54;96759.56;4969739;28;20423;-88
2022/09/29 09:51:49;;;;;;;8.98;6.15;;;;;;;13.97;66.56;96763.91;4970368;28;20486;-89
2022/09/29 09:54:32;;;;;;;7.03;5.65;;;;;;;14.06;63.00;96770.31;4949146;28;20042;-88
2022/09/29 09:57:16;;;;;;;7.78;6.03;;;;;;;14.04;63.84;96763.72;4970701;28;20045;-88
2022/09/29 10:00:13;;;;;;;8.30;6.22;;;;;;;13.84;64.53;96766.97;4974169;28;20121;-88
2022/09/29 10:02:48;;;;;;;8.15;5.75;;;;;;;13.71;63.62;96768.19;4972689;28;20098;-88
2022/09/29 10:05:19;;;;;;;7.72;5.53;;;;;;;14.01;64.05;96765.00;4974679;28;20050;-88
2022/09/29 10:07:49;;;;;;;9.07;5.72;;;;;;;14.14;65.91;96769.03;4973884;28;20474;-88
2022/09/29 10:10:27;;;;;;;9.57;5.80;;;;;;;13.99;63.34;96777.66;4968952;28;20054;-88
2022/09/29 10:13:13;;;;;;;7.22;5.43;;;;;;;13.93;64.95;96773.38;4949043;28;20113;-88
2022/09/29 10:16:07;;;;;;;8.75;6.18;;;;;;;14.38;64.50;96779.97;4974234;28;20499;-89
2022/09/29 10:18:52;;;;;;;6.90;5.70;;;;;;;14.51;63.17;96781.41;4955286;28;20510;-89
2022/09/29 10:21:25;;;;;;;9.18;5.15;;;;;;;14.43;64.16;96777.38;4973860;28;20717;-88
2022/09/29 10:23:56;;;;;;;6.32;4.30;;;;;;;14.34;62.94;96776.28;4972197;28;20070;-89
2022/09/29 10:26:46;;;;;;;7.25;5.00;;;;;;;13.92;64.20;96769.16;4938980;28;20047;-88
2022/09/29 10:29:38;;;;;;;10.60;6.38;;;;;;;13.96;64.32;96777.34;4952257;28;20142;-88
2022/09/29 10:32:35;;;;;;;8.57;5.18;;;;;;;13.96;63.61;96780.78;4958234;28;20106;-88
2022/09/29 10:35:16;;;;;;;7.30;4.85;;;;;;;14.06;63.70;96767.66;4954330;28;20070;-89
2022/09/29 10:37:58;;;;;;;5.82;4.57;;;;;;;14.43;64.00;96780.00;4973400;28;20106;-88
2022/09/29 10:40:25;;;;;;;6.53;4.70;;;;;;;14.17;61.30;96774.59;4966324;28;20454;-89
2022/09/29 10:42:52;;;;;;;6.53;4.03;;;;;;;14.05;61.66;96763.44;4974285;28;20035;-89
2022/09/29 10:45:28;;;;;;;7.80;4.80;;;;;;;14.31;64.61;96769.66;4956889;28;20131;-90
2022/09/29 10:47:58;;;;;;;6.80;4.72;;;;;;;14.33;62.95;96777.31;4971484;28;20570;-89
2022/09/29 10:50:48;;;;;;;6.35;4.32;;;;;;;14.25;62.40;96769.91;4972169;28;20039;-90
2022/09/29 10:53:27;;;;;;;5.18;4.18;;;;;;;14.02;62.56;96773.69;4971868;28;20053;-90
2022/09/29 10:56:05;;;;;;;7.47;4.22;;;;;;;14.27;64.30;96779.13;4973823;28;20053;-90
2022/09/29 10:58:42;;;;;;;4.95;4.03;;;;;;;14.33;62.95;96786.00;4958051;28;20074;-90
2022/09/29 11:01:29;;;;;;;4.85;4.03;;;;;;;14.40;61.03;96788.47;4975275;28;20105;-89
2022/09/29 11:04:02;;;;;;;5.10;4.05;;;;;;;14.33;60.43;96783.38;4965853;28;20047;-90
2022/09/29 11:06:37;;;;;;;7.45;4.75;;;;;;;14.09;59.98;96769.00;4972557;28;20065;-89
2022/09/29 11:09:34;;;;;;;5.50;4.40;;;;;;;14.13;62.15;96794.59;4973211;28;20046;-90
2022/09/29 11:12:01;;;;;;;6.20;4.30;;;;;;;14.28;61.38;96785.22;4969647;28;20043;-90
2022/09/29 11:14:37;;;;;;;5.18;3.85;;;;;;;14.54;63.53;96794.09;4972185;28;20117;-90
2022/09/29 11:18:07;;;;;;;5.22;4.00;;;;;;;14.51;60.33;96795.38;4973128;28;20039;-89
2022/09/29 11:20:36;;;;;;;4.63;3.40;;;;;;;14.54;60.94;96800.16;4955397;28;20506;-89
2022/09/29 11:23:09;;;;;;;5.45;3.60;;;;;;;14.65;59.28;96798.38;4972435;28;20051;-90
2022/09/29 11:25:47;;;;;;;4.40;3.40;;;;;;;14.75;61.60;96802.88;4970821;28;20070;-90
2022/09/29 11:28:46;;;;;;;4.13;2.50;;;;;;;14.62;58.44;96789.09;4936622;28;20086;-91
2022/09/29 11:31:42;;;;;;;6.25;3.25;;;;;;;14.72;59.65;96801.56;4954443;28;20745;-89
2022/09/29 11:34:44;;;;;;;6.80;2.85;;;;;;;14.55;57.73;96801.75;4956356;28;20134;-90
2022/09/29 11:37:22;;;;;;;4.35;2.60;;;;;;;14.39;55.90;96810.59;4972749;28;20479;-89
2022/09/29 11:40:53;;;;;;;3.05;2.30;;;;;;;14.23;54.99;96817.63;4963188;28;20039;-91
2022/09/29 11:43:37;;;;;;;3.90;2.10;;;;;;;14.30;53.93;96831.38;4962688;28;20062;-89
2022/09/29 11:46:44;;;;;;;3.83;2.03;;;;;;;14.32;55.27;96817.94;4973015;28;20127;-89
2022/09/29 11:49:41;;;;;;;4.28;2.40;;;;;;;14.55;58.84;96814.13;4965796;28;20117;-90
2022/09/29 11:52:38;;;;;;;6.82;3.33;;;;;;;14.59;58.04;96813.38;4969581;28;20063;-89
2022/09/29 11:55:32;;;;;;;5.32;2.83;;;;;;;14.46;57.20;96819.09;4969702;28;20043;-89
2022/09/29 11:58:21;;;;;;;5.55;3.70;;;;;;;14.53;57.93;96811.75;4972918;28;20070;-89
2022/09/29 12:01:00;;;;;;;7.35;3.70;;;;;;;14.47;58.08;96810.16;4964517;28;20131;-89
2022/09/29 12:03:42;;;;;;;4.88;3.17;;;;;;;14.57;57.98;96806.75;4967240;28;20058;-90
2022/09/29 12:06:32;;;;;;;5.90;3.45;;;;;;;14.64;57.99;96815.25;4971995;28;20592;-89
2022/09/29 12:09:12;;;;;;;4.22;3.15;;;;;;;14.53;58.02;96801.22;4971763;28;20094;-90
2022/09/29 12:12:09;;;;;;;6.35;3.25;;;;;;;14.63;58.92;96809.19;4955585;28;20407;-89
2022/09/29 12:15:30;;;;;;;3.55;3.13;;;;;;;14.64;59.37;96805.50;4964722;28;20045;-90
2022/09/29 12:18:10;;;;;;;5.45;3.15;;;;;;;14.46;56.98;96808.53;4951314;28;20066;-89
2022/09/29 12:20:44;;;;;;;5.18;2.83;;;;;;;14.38;55.72;96803.72;4938513;28;20047;-89